createdAt,value
2023-05-19T04:00:29.393Z,1005.46
2023-05-19T04:05:29.324Z,1005.45
2023-05-19T04:10:29.353Z,1005.47
2023-05-19T04:15:36.312Z,1005.37
2023-05-19T04:20:29.218Z,1005.41
2023-05-19T04:25:29.077Z,1005.46
2023-05-19T04:30:29.022Z,1005.42
2023-05-19T04:35:28.999Z,1005.38
2023-05-19T04:40:28.984Z,1005.39
2023-05-19T04:45:28.935Z,1005.49
2023-05-19T04:50:28.931Z,1005.44
2023-05-19T04:55:28.896Z,1005.48
2023-05-19T05:00:28.892Z,1005.41
2023-05-19T05:05:28.708Z,1005.53
2023-05-19T05:10:28.704Z,1005.46
2023-05-19T05:15:28.683Z,1005.42
2023-05-19T05:20:28.699Z,1005.49
2023-05-19T05:25:28.650Z,1005.57
2023-05-19T05:30:28.638Z,1005.53
2023-05-19T05:35:28.365Z,1005.53
2023-05-19T05:40:28.267Z,1005.58
2023-05-19T05:45:28.207Z,1005.61
2023-05-19T05:50:28.164Z,1005.54
2023-05-19T05:55:28.117Z,1005.48
2023-05-19T06:00:28.058Z,1005.47
2023-05-19T06:05:28.077Z,1005.51
2023-05-19T06:10:27.976Z,1005.45
2023-05-19T06:15:28.037Z,1005.48
2023-05-19T06:20:27.893Z,1005.42
2023-05-19T06:25:27.780Z,1005.40
2023-05-19T06:30:27.747Z,1005.38
2023-05-19T06:35:27.821Z,1005.39
2023-05-19T06:40:27.659Z,1005.42
2023-05-19T06:45:27.576Z,1005.37
2023-05-19T06:50:27.569Z,1005.42
2023-05-19T06:55:27.509Z,1005.38
2023-05-19T07:00:27.430Z,1005.35
2023-05-19T07:05:27.356Z,1005.30
2023-05-19T07:10:27.338Z,1005.36
2023-05-19T07:15:27.291Z,1005.35
2023-05-19T07:20:27.227Z,1005.35
2023-05-19T07:25:27.166Z,1005.35
2023-05-19T07:30:27.092Z,1005.34
2023-05-19T07:35:27.097Z,1005.27
2023-05-19T07:40:26.986Z,1005.30
2023-05-19T07:45:26.919Z,1005.32
2023-05-19T07:50:26.915Z,1005.34
2023-05-19T07:55:26.986Z,1005.24
2023-05-19T08:00:26.765Z,1005.15
2023-05-19T08:05:26.724Z,1005.05
2023-05-19T08:10:26.663Z,1005.05
2023-05-19T08:15:26.822Z,1005.01
2023-05-19T08:20:26.569Z,1004.93
2023-05-19T08:25:26.538Z,1004.98
2023-05-19T08:30:26.451Z,1004.95
2023-05-19T08:35:26.464Z,1004.85
2023-05-19T08:40:26.396Z,1004.77
2023-05-19T08:45:26.297Z,1004.85
2023-05-19T08:50:26.222Z,1004.73
2023-05-19T08:55:26.398Z,1004.75
2023-05-19T09:00:26.119Z,1004.60
2023-05-19T09:05:26.167Z,1004.59
2023-05-19T09:10:27.161Z,1004.55
2023-05-19T09:15:26.042Z,1004.55
2023-05-19T09:20:25.931Z,1004.57
2023-05-19T09:25:25.890Z,1004.53
2023-05-19T09:30:25.806Z,1004.46
2023-05-19T09:35:25.778Z,1004.43
2023-05-19T09:40:25.690Z,1004.22
2023-05-19T09:45:25.673Z,1004.35
2023-05-19T09:50:25.585Z,1004.31
2023-05-19T09:55:25.604Z,1004.27
2023-05-19T10:00:25.494Z,1004.29
2023-05-19T10:05:25.572Z,1004.19
2023-05-19T10:10:25.389Z,1004.21
2023-05-19T10:15:25.355Z,1004.31
2023-05-19T10:20:25.262Z,1004.21
2023-05-19T10:25:25.248Z,1004.13
2023-05-19T10:30:25.167Z,1004.15
2023-05-19T10:35:25.132Z,1004.11
2023-05-19T10:40:25.143Z,1004.12
2023-05-19T10:45:25.037Z,1004.05
2023-05-19T10:50:24.960Z,1003.98
2023-05-19T10:55:24.935Z,1003.98
2023-05-19T11:00:24.852Z,1003.93
2023-05-19T11:05:24.914Z,1003.97
2023-05-19T11:10:24.749Z,1003.88
2023-05-19T11:15:24.722Z,1003.95
2023-05-19T11:20:24.667Z,1003.89
2023-05-19T11:25:24.577Z,1003.76
2023-05-19T11:30:24.526Z,1003.83
2023-05-19T11:35:24.545Z,1003.75
2023-05-19T11:40:24.423Z,1003.74
2023-05-19T11:45:24.410Z,1003.76
2023-05-19T11:50:24.350Z,1003.73
2023-05-19T11:55:24.297Z,1003.67
2023-05-19T12:00:24.218Z,1003.56
2023-05-19T12:05:24.240Z,1003.52
2023-05-19T12:10:24.106Z,1003.40
2023-05-19T12:15:24.051Z,1003.32
2023-05-19T12:20:23.991Z,1003.51
2023-05-19T12:25:23.980Z,1003.43
2023-05-19T12:30:24.072Z,1003.28
2023-05-19T12:35:23.841Z,1003.28
2023-05-19T12:40:23.775Z,1003.30
2023-05-19T12:45:23.725Z,1003.17
2023-05-19T12:50:23.752Z,1003.21
2023-05-19T12:55:23.771Z,1003.31
2023-05-19T13:00:23.634Z,1003.15
2023-05-19T13:05:23.521Z,1003.08
2023-05-19T13:10:23.479Z,1003.12
2023-05-19T13:15:23.422Z,1003.18
2023-05-19T13:20:24.297Z,1003.34
2023-05-19T13:25:23.316Z,1003.16
2023-05-19T13:30:23.254Z,1003.17
2023-05-19T13:35:23.414Z,1002.98
2023-05-19T13:40:23.116Z,1003.04
2023-05-19T13:45:23.098Z,1002.81
2023-05-19T13:50:23.022Z,1002.80
2023-05-19T13:55:22.999Z,1002.89
2023-05-19T14:00:22.936Z,1002.93
2023-05-19T14:05:22.851Z,1002.87
2023-05-19T14:10:22.806Z,1002.75
2023-05-19T14:15:22.793Z,1002.79
2023-05-19T14:20:22.680Z,1002.78
2023-05-19T14:25:22.659Z,1002.74
2023-05-19T14:30:22.587Z,1002.76
2023-05-19T14:35:22.573Z,1002.62
2023-05-19T14:40:22.481Z,1002.70
2023-05-19T14:45:22.830Z,1002.69
2023-05-19T14:50:22.368Z,1002.69
2023-05-19T14:55:22.369Z,1002.60
2023-05-19T15:00:22.307Z,1002.63
2023-05-19T15:05:22.225Z,1002.63
2023-05-19T15:10:22.192Z,1002.59
2023-05-19T15:15:22.128Z,1002.46
2023-05-19T15:20:22.082Z,1002.37
2023-05-19T15:25:22.021Z,1002.41
2023-05-19T15:30:21.944Z,1002.66
2023-05-19T15:35:21.943Z,1002.46
2023-05-19T15:40:21.861Z,1002.45
2023-05-19T15:45:21.824Z,1002.42
2023-05-19T15:50:21.742Z,1002.38
2023-05-19T15:55:21.760Z,1002.36
2023-05-19T16:00:21.637Z,1002.38
2023-05-19T16:05:21.589Z,1002.30
2023-05-19T16:10:21.528Z,1002.26
2023-05-19T16:15:21.502Z,1002.18
2023-05-19T16:20:21.431Z,1002.22
2023-05-19T16:25:21.470Z,1002.16
2023-05-19T16:30:21.353Z,1002.16
2023-05-19T16:35:21.298Z,1002.11
2023-05-19T16:40:21.207Z,1002.13
2023-05-19T16:45:21.168Z,1002.10
2023-05-19T16:50:21.092Z,1002.05
2023-05-19T16:55:21.100Z,1001.99
2023-05-19T17:00:21.001Z,1001.98
2023-05-19T17:05:20.960Z,1001.85
2023-05-19T17:10:20.893Z,1002.03
2023-05-19T17:15:20.872Z,1001.94
2023-05-19T17:20:20.784Z,1002.06
2023-05-19T17:25:20.720Z,1001.92
2023-05-19T17:30:20.668Z,1001.91
2023-05-19T17:35:20.675Z,1001.98
2023-05-19T17:40:20.585Z,1001.96
2023-05-19T17:45:20.504Z,1002.02
2023-05-19T17:50:20.450Z,1002.07
2023-05-19T17:55:20.438Z,1002.07
2023-05-19T18:00:20.335Z,1002.17
2023-05-19T18:05:20.296Z,1002.21
2023-05-19T18:10:20.237Z,1002.23
2023-05-19T18:15:20.197Z,1002.20
2023-05-19T18:20:20.131Z,1002.23
2023-05-19T18:25:20.095Z,1002.35
2023-05-19T18:30:20.030Z,1002.28
2023-05-19T18:35:20.012Z,1002.27
2023-05-19T18:40:19.930Z,1002.28
2023-05-19T18:45:19.858Z,1002.27
2023-05-19T18:50:19.797Z,1002.31
2023-05-19T18:55:19.831Z,1002.42
2023-05-19T19:00:19.705Z,1002.54
2023-05-19T19:05:19.662Z,1002.56
2023-05-19T19:10:19.597Z,1002.59
2023-05-19T19:15:19.539Z,1002.65
2023-05-19T19:20:19.486Z,1002.78
2023-05-19T19:25:21.250Z,1002.71
2023-05-19T19:30:19.360Z,1002.71
2023-05-19T19:35:19.336Z,1002.76
2023-05-19T19:40:19.275Z,1002.84
2023-05-19T19:45:19.205Z,1002.93
2023-05-19T19:50:19.165Z,1002.96
2023-05-19T19:55:19.146Z,1002.99
2023-05-19T20:00:19.053Z,1002.98
2023-05-19T20:05:18.993Z,1002.92
2023-05-19T20:10:19.113Z,1002.89
2023-05-19T20:15:18.962Z,1002.95
2023-05-19T20:20:18.839Z,1003.05
2023-05-19T20:25:18.802Z,1003.03
2023-05-19T20:30:18.732Z,1003.14
2023-05-19T20:35:18.699Z,1003.13
2023-05-19T20:40:18.623Z,1003.15
2023-05-19T20:45:18.570Z,1003.19
2023-05-19T20:50:18.500Z,1003.20
2023-05-19T20:55:18.475Z,1003.19
2023-05-19T21:00:18.379Z,1003.22
2023-05-19T21:05:18.340Z,1003.27
2023-05-19T21:10:18.306Z,1003.21
2023-05-19T21:15:18.490Z,1003.28
2023-05-19T21:20:18.157Z,1003.39
2023-05-19T21:25:18.167Z,1003.38
2023-05-19T21:30:18.062Z,1003.39
2023-05-19T21:35:18.034Z,1003.40
2023-05-19T21:40:17.965Z,1003.34
2023-05-19T21:45:17.893Z,1003.34
2023-05-19T21:50:17.878Z,1003.39
2023-05-19T21:55:17.813Z,1003.39
2023-05-19T22:00:17.726Z,1003.30
2023-05-19T22:05:17.695Z,1003.26
2023-05-19T22:10:17.687Z,1003.30
2023-05-19T22:15:17.595Z,1003.28
2023-05-19T22:20:25.116Z,1003.46
2023-05-19T22:25:17.441Z,1003.54
2023-05-19T22:30:17.404Z,1003.43
2023-05-19T22:35:17.372Z,1003.31
2023-05-19T22:40:17.286Z,1003.37
2023-05-19T22:45:17.219Z,1003.33
2023-05-19T22:50:17.175Z,1003.25
2023-05-19T22:55:17.131Z,1003.31
2023-05-19T23:00:17.076Z,1003.28
2023-05-19T23:05:17.003Z,1003.27
2023-05-19T23:10:16.977Z,1003.24
2023-05-19T23:15:16.919Z,1003.25
2023-05-19T23:20:16.848Z,1003.34
2023-05-19T23:25:16.978Z,1003.22
